createdAt,value
2022-07-28T00:00:38.200Z,101191.61
2022-07-28T00:03:11.674Z,101190.32
2022-07-28T00:05:42.249Z,101194.00
2022-07-28T00:08:13.650Z,101195.28
2022-07-28T00:10:42.952Z,101191.10
2022-07-28T00:13:12.201Z,101188.63
2022-07-28T00:15:42.002Z,101189.63
2022-07-28T00:18:11.297Z,101191.43
2022-07-28T00:20:40.657Z,101186.77
2022-07-28T00:23:09.972Z,101189.11
2022-07-28T00:25:39.841Z,101189.08
2022-07-28T00:28:09.123Z,101193.59
2022-07-28T00:30:38.468Z,101195.66
2022-07-28T00:33:07.848Z,101197.95
2022-07-28T00:35:37.123Z,101200.84
2022-07-28T00:38:06.449Z,101196.96
2022-07-28T00:40:53.632Z,101195.67
2022-07-28T00:43:22.898Z,101192.03
2022-07-28T00:45:52.210Z,101189.41
2022-07-28T00:48:21.507Z,101189.07
2022-07-28T00:50:50.870Z,101189.61
2022-07-28T00:53:20.194Z,101191.68
2022-07-28T00:56:02.516Z,101193.71
2022-07-28T00:58:35.600Z,101192.38
2022-07-28T01:01:04.982Z,101195.12
2022-07-28T01:03:34.170Z,101194.02
2022-07-28T01:06:03.352Z,101194.56
2022-07-28T01:08:32.714Z,101201.02
2022-07-28T01:11:01.968Z,101197.27
2022-07-28T01:13:33.152Z,101198.29
2022-07-28T01:16:03.233Z,101196.73
2022-07-28T01:18:32.713Z,101198.81
2022-07-28T01:21:02.011Z,101199.36
2022-07-28T01:23:31.274Z,101202.61
2022-07-28T01:26:00.468Z,101200.02
2022-07-28T01:28:29.778Z,101199.88
2022-07-28T01:30:59.208Z,101197.70
2022-07-28T01:33:28.940Z,101199.02
2022-07-28T01:35:58.205Z,101200.16
2022-07-28T01:38:27.810Z,101200.73
2022-07-28T01:40:57.203Z,101204.20
2022-07-28T01:43:26.585Z,101205.61
2022-07-28T01:45:57.104Z,101200.20
2022-07-28T01:48:26.870Z,101200.46
2022-07-28T01:50:56.193Z,101200.84
2022-07-28T01:53:25.644Z,101201.71
2022-07-28T01:55:55.470Z,101199.50
2022-07-28T01:58:24.819Z,101200.81
2022-07-28T02:00:54.008Z,101204.90
2022-07-28T02:03:23.669Z,101203.61
2022-07-28T02:05:52.841Z,101207.79
2022-07-28T02:08:22.026Z,101207.86
2022-07-28T02:11:05.090Z,101207.36
2022-07-28T02:13:39.591Z,101205.34
2022-07-28T02:16:08.935Z,101201.89
2022-07-28T02:18:38.200Z,101200.45
2022-07-28T02:21:09.847Z,101203.02
2022-07-28T02:23:39.654Z,101207.60
2022-07-28T02:26:08.898Z,101207.91
2022-07-28T02:28:38.266Z,101203.36
2022-07-28T02:31:09.475Z,101208.27
2022-07-28T02:33:59.295Z,101208.55
2022-07-28T02:36:27.947Z,101209.08
2022-07-28T02:38:58.227Z,101207.59
2022-07-28T02:41:27.474Z,101208.29
2022-07-28T02:43:56.719Z,101208.85
2022-07-28T02:46:25.953Z,101212.15
2022-07-28T02:48:55.220Z,101214.34
2022-07-28T02:51:24.438Z,101222.15
2022-07-28T02:53:53.608Z,101223.30
2022-07-28T02:56:22.715Z,101228.27
2022-07-28T02:58:51.803Z,101224.45
2022-07-28T03:01:20.982Z,101232.66
2022-07-28T03:03:50.345Z,101241.09
2022-07-28T03:06:20.231Z,101242.03
2022-07-28T03:08:58.147Z,101240.45
2022-07-28T03:11:28.609Z,101241.23
2022-07-28T03:13:57.823Z,101242.70
2022-07-28T03:16:28.134Z,101247.79
2022-07-28T03:18:57.334Z,101251.20
2022-07-28T03:21:26.421Z,101247.70
2022-07-28T03:23:55.606Z,101246.74
2022-07-28T03:26:24.776Z,101253.91
2022-07-28T03:28:54.636Z,101257.38
2022-07-28T03:31:24.022Z,101261.30
2022-07-28T03:33:53.344Z,101264.58
2022-07-28T03:36:22.542Z,101269.22
2022-07-28T03:38:51.674Z,101271.65
2022-07-28T03:41:20.942Z,101272.64
2022-07-28T03:43:50.215Z,101276.39
2022-07-28T03:46:22.015Z,101283.40
2022-07-28T03:48:51.274Z,101286.38
2022-07-28T03:51:20.581Z,101283.10
2022-07-28T03:53:49.857Z,101284.59
2022-07-28T03:56:20.071Z,101286.11
2022-07-28T03:58:49.367Z,101291.04
2022-07-28T04:01:18.815Z,101289.39
2022-07-28T04:03:48.247Z,101293.65
2022-07-28T04:06:17.638Z,101292.43
2022-07-28T04:08:46.963Z,101293.68
2022-07-28T04:11:16.295Z,101293.48
2022-07-28T04:13:45.590Z,101295.30
2022-07-28T04:16:14.885Z,101297.42
2022-07-28T04:18:44.709Z,101298.25
2022-07-28T04:21:13.928Z,101298.20
2022-07-28T04:23:43.198Z,101302.00
2022-07-28T04:26:12.416Z,101305.24
2022-07-28T04:28:41.792Z,101304.98
2022-07-28T04:31:11.049Z,101304.95
2022-07-28T04:33:41.115Z,101307.30
2022-07-28T04:36:10.817Z,101306.56
2022-07-28T04:38:40.027Z,101305.58
2022-07-28T04:41:09.275Z,101309.58
2022-07-28T04:43:39.027Z,101305.52
2022-07-28T04:46:11.922Z,101304.34
2022-07-28T04:48:46.023Z,101303.21
2022-07-28T04:51:15.377Z,101302.19
2022-07-28T04:53:44.617Z,101305.15
2022-07-28T04:56:14.069Z,101303.52
2022-07-28T04:58:44.097Z,101305.39
2022-07-28T05:01:14.734Z,101307.54
2022-07-28T05:03:44.034Z,101307.83
2022-07-28T05:06:13.378Z,101306.00
2022-07-28T05:08:42.617Z,101305.58
2022-07-28T05:11:11.874Z,101304.23
2022-07-28T05:13:41.146Z,101303.96
2022-07-28T05:16:10.576Z,101305.90
2022-07-28T05:18:39.866Z,101307.77
2022-07-28T05:21:09.182Z,101310.86
2022-07-28T05:23:38.402Z,101312.80
2022-07-28T05:26:07.665Z,101314.45
2022-07-28T05:28:36.964Z,101314.76
2022-07-28T05:31:06.198Z,101314.56
2022-07-28T05:33:35.392Z,101313.48
2022-07-28T05:36:04.663Z,101315.17
2022-07-28T05:38:33.969Z,101317.02
2022-07-28T05:41:03.368Z,101318.45
2022-07-28T05:43:32.759Z,101320.00
2022-07-28T05:46:02.268Z,101317.55
2022-07-28T05:48:32.122Z,101317.02
2022-07-28T05:51:01.450Z,101317.23
2022-07-28T05:53:30.798Z,101316.77
2022-07-28T05:56:01.741Z,101322.67
2022-07-28T05:58:32.303Z,101319.55
2022-07-28T06:01:02.663Z,101320.00
2022-07-28T06:03:32.327Z,101322.41
2022-07-28T06:06:16.199Z,101321.70
2022-07-28T06:08:47.328Z,101318.98
2022-07-28T06:11:22.046Z,101322.63
2022-07-28T06:13:53.188Z,101323.20
2022-07-28T06:16:23.605Z,101322.69
2022-07-28T06:18:53.391Z,101325.67
2022-07-28T06:21:22.858Z,101324.88
2022-07-28T06:23:52.450Z,101325.11
2022-07-28T06:26:23.761Z,101327.66
2022-07-28T06:28:53.740Z,101329.48
2022-07-28T06:31:23.121Z,101326.77
2022-07-28T06:33:52.526Z,101328.61
2022-07-28T06:36:21.907Z,101335.23
2022-07-28T06:38:51.737Z,101336.30
2022-07-28T06:41:21.125Z,101338.83
2022-07-28T06:43:53.458Z,101338.89
2022-07-28T06:46:23.446Z,101339.45
2022-07-28T06:48:52.897Z,101337.86
2022-07-28T06:51:24.790Z,101342.05
2022-07-28T06:53:56.482Z,101340.03
2022-07-28T06:56:25.918Z,101344.11
2022-07-28T06:58:55.271Z,101338.41
2022-07-28T07:01:24.643Z,101336.68
2022-07-28T07:03:53.889Z,101337.15
2022-07-28T07:06:23.180Z,101341.88
2022-07-28T07:08:53.006Z,101341.27
2022-07-28T07:11:22.311Z,101337.82
2022-07-28T07:13:51.583Z,101342.09
2022-07-28T07:16:20.823Z,101337.29
2022-07-28T07:18:53.461Z,101341.46
2022-07-28T07:21:22.736Z,101337.17
2022-07-28T07:23:55.153Z,101336.98
2022-07-28T07:26:24.448Z,101332.60
2022-07-28T07:28:53.814Z,101336.77
2022-07-28T07:31:23.237Z,101337.11
2022-07-28T07:33:52.485Z,101337.77
2022-07-28T07:36:21.759Z,101337.13
2022-07-28T07:38:51.614Z,101337.86
2022-07-28T07:41:20.924Z,101337.07
2022-07-28T07:43:51.072Z,101337.06
2022-07-28T07:46:20.323Z,101336.19
2022-07-28T07:48:49.662Z,101334.30
2022-07-28T07:51:18.882Z,101336.65
2022-07-28T07:53:48.179Z,101333.68
2022-07-28T07:56:18.923Z,101334.23
2022-07-28T07:58:48.196Z,101332.30
2022-07-28T08:01:17.561Z,101337.33
2022-07-28T08:03:50.197Z,101342.65
2022-07-28T08:06:26.584Z,101335.23
2022-07-28T08:08:56.459Z,101339.20
2022-07-28T08:11:26.215Z,101346.77
2022-07-28T08:13:55.597Z,101342.84
2022-07-28T08:16:24.917Z,101343.16
2022-07-28T08:18:54.219Z,101342.23
2022-07-28T08:21:23.469Z,101342.38
2022-07-28T08:23:52.761Z,101343.11
2022-07-28T08:26:22.253Z,101340.15
2022-07-28T08:28:51.571Z,101333.87
2022-07-28T08:31:23.054Z,101334.48
2022-07-28T08:33:54.591Z,101334.83
2022-07-28T08:36:24.403Z,101340.84
2022-07-28T08:38:53.599Z,101335.30
2022-07-28T08:41:22.926Z,101337.36
2022-07-28T08:43:52.122Z,101336.13
2022-07-28T08:46:21.535Z,101335.35
2022-07-28T08:48:50.810Z,101330.02
2022-07-28T08:51:20.177Z,101327.67
2022-07-28T08:53:49.436Z,101329.95
2022-07-28T08:56:18.796Z,101324.13
2022-07-28T08:58:48.169Z,101320.56
2022-07-28T09:01:17.599Z,101320.50
2022-07-28T09:03:46.848Z,101321.36
2022-07-28T09:06:16.145Z,101322.30
2022-07-28T09:08:45.450Z,101322.01
2022-07-28T09:11:14.737Z,101322.27
2022-07-28T09:13:43.970Z,101323.02
2022-07-28T09:16:13.208Z,101319.20
2022-07-28T09:18:43.164Z,101320.25
2022-07-28T09:21:12.436Z,101322.02
2022-07-28T09:23:44.069Z,101325.06
2022-07-28T09:26:13.734Z,101326.13
2022-07-28T09:28:43.455Z,101326.63
2022-07-28T09:31:14.469Z,101326.59
2022-07-28T09:33:44.061Z,101322.34
2022-07-28T09:36:13.629Z,101319.66
2022-07-28T09:38:43.042Z,101319.36
2022-07-28T09:41:12.412Z,101315.87
2022-07-28T09:43:42.919Z,101319.70
2022-07-28T09:46:12.439Z,101316.37
2022-07-28T09:48:42.260Z,101314.76
2022-07-28T09:51:13.029Z,101313.34
2022-07-28T09:53:42.312Z,101304.98
2022-07-28T09:56:11.560Z,101303.02
2022-07-28T09:58:40.874Z,101305.98
2022-07-28T10:01:12.254Z,101302.10
2022-07-28T10:03:43.359Z,101291.83
2022-07-28T10:06:12.626Z,101297.85
2022-07-28T10:08:42.232Z,101298.81
2022-07-28T10:11:11.960Z,101300.18
2022-07-28T10:13:41.230Z,101301.92
2022-07-28T10:16:13.531Z,101303.87
2022-07-28T10:18:42.765Z,101298.68
2022-07-28T10:21:11.940Z,101293.82
2022-07-28T10:23:41.138Z,101294.98
2022-07-28T10:26:10.977Z,101297.83
2022-07-28T10:28:42.542Z,101301.66
2022-07-28T10:31:11.988Z,101300.02
2022-07-28T10:33:41.341Z,101292.52
2022-07-28T10:36:11.116Z,101292.71
2022-07-28T10:38:40.399Z,101298.70
2022-07-28T10:41:09.547Z,101291.11
2022-07-28T10:43:42.809Z,101293.86
2022-07-28T10:46:16.974Z,101294.59
2022-07-28T10:48:47.045Z,101296.17
2022-07-28T10:51:16.627Z,101291.95
2022-07-28T10:53:45.849Z,101292.54
2022-07-28T10:56:15.197Z,101294.98
2022-07-28T10:58:44.459Z,101292.68
2022-07-28T11:01:32.599Z,101290.84
2022-07-28T11:04:06.609Z,101288.09
2022-07-28T11:06:36.719Z,101285.03
2022-07-28T11:09:05.827Z,101283.07
2022-07-28T11:11:35.055Z,101279.02
2022-07-28T11:14:05.676Z,101282.33
2022-07-28T11:16:36.582Z,101291.00
2022-07-28T11:19:07.669Z,101285.16
2022-07-28T11:21:39.827Z,101283.71
2022-07-28T11:24:17.828Z,101282.02
2022-07-28T11:26:47.897Z,101285.74
2022-07-28T11:29:17.111Z,101282.20
2022-07-28T11:31:46.446Z,101289.09
2022-07-28T11:34:15.986Z,101288.15
2022-07-28T11:36:45.795Z,101284.80
2022-07-28T11:39:15.073Z,101281.48
2022-07-28T11:41:44.257Z,101278.89
2022-07-28T11:44:16.510Z,101276.45
2022-07-28T11:46:47.906Z,101275.92
2022-07-28T11:49:22.346Z,101276.00
2022-07-28T11:51:52.693Z,101278.20
2022-07-28T11:54:22.439Z,101275.73
2022-07-28T11:56:51.534Z,101273.80
2022-07-28T11:59:20.857Z,101273.27
2022-07-28T12:01:50.082Z,101266.16
2022-07-28T12:04:20.678Z,101260.73
2022-07-28T12:06:51.525Z,101259.84
2022-07-28T12:09:26.270Z,101260.67
2022-07-28T12:11:57.863Z,101259.03
2022-07-28T12:14:29.687Z,101263.60
2022-07-28T12:16:58.953Z,101254.94
2022-07-28T12:19:32.854Z,101251.06
2022-07-28T12:22:02.882Z,101253.61
2022-07-28T12:24:44.768Z,101250.27
2022-07-28T12:27:16.843Z,101248.65
2022-07-28T12:29:47.939Z,101246.44
2022-07-28T12:32:20.667Z,101241.52
2022-07-28T12:34:49.882Z,101240.64
2022-07-28T12:37:19.651Z,101239.39
2022-07-28T12:39:48.806Z,101234.23
2022-07-28T12:42:18.182Z,101230.90
2022-07-28T12:44:48.641Z,101230.25
2022-07-28T12:47:18.027Z,101232.79
2022-07-28T12:49:56.307Z,101234.45
2022-07-28T12:52:27.910Z,101232.09
2022-07-28T12:54:57.229Z,101232.87
2022-07-28T12:57:26.666Z,101228.38
2022-07-28T12:59:55.919Z,101228.70
2022-07-28T13:02:25.325Z,101221.88
2022-07-28T13:04:54.678Z,101217.60
2022-07-28T13:07:24.388Z,101217.52
2022-07-28T13:10:00.548Z,101211.55
2022-07-28T13:12:31.238Z,101209.70
2022-07-28T13:15:00.533Z,101208.46
2022-07-28T13:17:32.165Z,101209.74
2022-07-28T13:20:01.432Z,101203.64
2022-07-28T13:22:33.413Z,101204.42
2022-07-28T13:25:02.619Z,101204.64
2022-07-28T13:27:31.872Z,101204.21
2022-07-28T13:30:01.287Z,101206.95
2022-07-28T13:32:30.704Z,101206.00
2022-07-28T13:35:00.453Z,101205.27
2022-07-28T13:37:31.699Z,101201.86
2022-07-28T13:40:02.279Z,101199.14
2022-07-28T13:42:31.606Z,101198.41
2022-07-28T13:45:00.911Z,101195.06
2022-07-28T13:47:38.715Z,101196.02
2022-07-28T13:50:09.909Z,101193.35
2022-07-28T13:52:40.729Z,101195.06
2022-07-28T13:55:10.702Z,101194.06
2022-07-28T13:57:43.135Z,101193.19
2022-07-28T14:00:13.004Z,101190.23
2022-07-28T14:02:44.015Z,101185.56
2022-07-28T14:05:15.356Z,101182.55
2022-07-28T14:07:48.044Z,101181.19
2022-07-28T14:10:19.627Z,101174.44
2022-07-28T14:12:48.998Z,101179.45
2022-07-28T14:15:18.360Z,101176.10
2022-07-28T14:17:47.702Z,101179.37
2022-07-28T14:20:17.012Z,101179.14
2022-07-28T14:22:46.928Z,101176.33
2022-07-28T14:25:20.759Z,101176.71
2022-07-28T14:27:51.795Z,101181.98
2022-07-28T14:30:21.669Z,101180.58
2022-07-28T14:32:50.928Z,101178.73
2022-07-28T14:35:20.356Z,101180.26
2022-07-28T14:38:49.893Z,101177.08
2022-07-28T14:40:39.947Z,101176.41
2022-07-28T14:43:10.496Z,101176.45
2022-07-28T14:45:50.609Z,101176.76
2022-07-28T14:48:29.997Z,101174.88
2022-07-28T14:51:01.788Z,101169.96
2022-07-28T14:53:31.104Z,101169.88
2022-07-28T14:56:00.424Z,101170.95
2022-07-28T14:58:31.744Z,101166.95
2022-07-28T15:01:01.851Z,101166.23
2022-07-28T15:03:36.213Z,101163.63
2022-07-28T15:06:06.322Z,101160.16
2022-07-28T15:08:35.566Z,101159.91
2022-07-28T15:11:04.890Z,101160.87
2022-07-28T15:13:34.792Z,101160.70
2022-07-28T15:16:04.279Z,101159.14
2022-07-28T15:18:33.728Z,101155.95
2022-07-28T15:21:03.223Z,101157.58
2022-07-28T15:23:32.758Z,101153.91
2022-07-28T15:26:02.102Z,101152.90
2022-07-28T15:28:32.051Z,101154.49
2022-07-28T15:31:01.696Z,101157.95
2022-07-28T15:33:31.330Z,101157.58
2022-07-28T15:36:01.765Z,101152.86
2022-07-28T15:38:31.654Z,101152.33
2022-07-28T15:41:01.823Z,101152.90
2022-07-28T15:43:33.292Z,101147.85
2022-07-28T15:46:02.690Z,101148.48
2022-07-28T15:48:32.045Z,101143.70
2022-07-28T15:51:01.398Z,101146.31
2022-07-28T15:53:31.163Z,101145.77
2022-07-28T15:56:00.409Z,101147.90
2022-07-28T15:58:29.726Z,101147.77
2022-07-28T16:01:01.602Z,101154.02
2022-07-28T16:03:31.686Z,101154.04
2022-07-28T16:06:01.021Z,101147.82
2022-07-28T16:08:30.294Z,101149.67
2022-07-28T16:10:59.969Z,101151.05
2022-07-28T16:13:35.640Z,101151.30
2022-07-28T16:16:06.963Z,101145.61
2022-07-28T16:18:36.887Z,101145.62
2022-07-28T16:21:06.179Z,101147.58
2022-07-28T16:23:35.836Z,101144.25
2022-07-28T16:26:08.276Z,101144.02
2022-07-28T16:28:37.915Z,101147.45
2022-07-28T16:31:07.186Z,101150.77
2022-07-28T16:33:36.445Z,101150.73
2022-07-28T16:36:05.779Z,101149.84
2022-07-28T16:38:35.002Z,101151.30
2022-07-28T16:41:04.257Z,101153.65
2022-07-28T16:43:34.427Z,101156.91
2022-07-28T16:46:04.351Z,101156.79
2022-07-28T16:48:33.476Z,101153.46
2022-07-28T16:51:03.444Z,101159.63
2022-07-28T16:53:33.927Z,101155.74
2022-07-28T16:56:04.492Z,101149.48
2022-07-28T16:58:38.450Z,101151.80
2022-07-28T17:01:09.613Z,101152.34
2022-07-28T17:03:38.979Z,101154.02
2022-07-28T17:06:08.147Z,101156.58
2022-07-28T17:08:37.385Z,101152.36
2022-07-28T17:11:06.743Z,101152.64
2022-07-28T17:13:35.915Z,101152.30
2022-07-28T17:16:07.199Z,101155.58
2022-07-28T17:18:38.117Z,101155.88
2022-07-28T17:21:07.357Z,101156.48
2022-07-28T17:23:36.661Z,101157.45
2022-07-28T17:26:52.633Z,101154.70
2022-07-28T17:28:55.382Z,101157.03
2022-07-28T17:31:24.756Z,101154.42
2022-07-28T17:33:53.935Z,101152.58
2022-07-28T17:36:23.099Z,101148.92
2022-07-28T17:38:53.299Z,101150.51
2022-07-28T17:41:22.474Z,101153.61
2022-07-28T17:43:51.722Z,101153.61
2022-07-28T17:46:21.222Z,101156.42
2022-07-28T17:48:51.635Z,101155.16
2022-07-28T17:51:20.899Z,101157.54
2022-07-28T17:53:50.389Z,101155.52
2022-07-28T17:56:22.070Z,101157.83
2022-07-28T17:58:51.401Z,101155.34
2022-07-28T18:01:20.735Z,101160.99
2022-07-28T18:03:57.188Z,101159.63
2022-07-28T18:06:30.956Z,101166.09
2022-07-28T18:09:04.805Z,101160.96
2022-07-28T18:11:37.446Z,101164.44
2022-07-28T18:14:26.437Z,101161.19
2022-07-28T18:16:55.674Z,101163.02
2022-07-28T18:19:24.839Z,101161.38
2022-07-28T18:21:54.073Z,101166.26
2022-07-28T18:24:23.331Z,101164.25
2022-07-28T18:26:52.734Z,101163.93
2022-07-28T18:29:23.234Z,101166.45
2022-07-28T18:31:52.557Z,101174.61
2022-07-28T18:34:23.562Z,101174.78
2022-07-28T18:36:54.537Z,101175.84
2022-07-28T18:39:23.950Z,101177.58
2022-07-28T18:41:53.231Z,101178.48
2022-07-28T18:44:22.714Z,101178.89
2022-07-28T18:46:52.023Z,101179.13
2022-07-28T18:49:22.508Z,101183.00
2022-07-28T18:51:51.892Z,101185.88
2022-07-28T18:54:27.412Z,101188.64
2022-07-28T18:56:58.078Z,101191.60
2022-07-28T18:59:27.339Z,101188.30
2022-07-28T19:01:56.840Z,101191.65
2022-07-28T19:04:26.179Z,101196.83
2022-07-28T19:06:56.701Z,101193.60
2022-07-28T19:09:26.804Z,101195.77
2022-07-28T19:11:57.402Z,101197.68
2022-07-28T19:14:26.602Z,101198.71
2022-07-28T19:16:55.871Z,101202.66
2022-07-28T19:19:25.071Z,101204.09
2022-07-28T19:21:54.390Z,101208.02
2022-07-28T19:24:23.720Z,101214.85
2022-07-28T19:26:54.578Z,101217.39
2022-07-28T19:29:25.902Z,101216.08
2022-07-28T19:31:55.102Z,101216.48
2022-07-28T19:34:24.403Z,101214.73
2022-07-28T19:36:55.593Z,101219.11
2022-07-28T19:39:24.888Z,101215.33
2022-07-28T19:41:54.321Z,101219.30
2022-07-28T19:44:24.443Z,101220.44
2022-07-28T19:46:54.735Z,101220.33
2022-07-28T19:49:24.037Z,101221.60
2022-07-28T19:51:53.308Z,101226.59
2022-07-28T19:54:24.295Z,101224.10
2022-07-28T19:56:54.417Z,101230.69
2022-07-28T19:59:25.392Z,101228.31
2022-07-28T20:01:56.100Z,101226.61
2022-07-28T20:04:26.474Z,101231.50
2022-07-28T20:06:56.867Z,101234.11
2022-07-28T20:09:26.234Z,101239.81
2022-07-28T20:11:57.060Z,101239.88
2022-07-28T20:14:26.396Z,101236.73
2022-07-28T20:16:55.756Z,101239.13
2022-07-28T20:19:25.022Z,101241.73
2022-07-28T20:21:54.361Z,101247.11
2022-07-28T20:24:24.843Z,101248.38
2022-07-28T20:26:53.997Z,101251.13
2022-07-28T20:29:23.165Z,101252.98
2022-07-28T20:31:52.431Z,101249.97
2022-07-28T20:34:22.608Z,101250.25
2022-07-28T20:36:54.172Z,101256.04
2022-07-28T20:39:44.023Z,101258.14
2022-07-28T20:42:12.714Z,101258.23
2022-07-28T20:44:42.050Z,101257.75
2022-07-28T20:47:11.390Z,101254.27
2022-07-28T20:49:40.705Z,101258.08
2022-07-28T20:52:09.798Z,101264.30
2022-07-28T20:54:40.142Z,101263.42
2022-07-28T20:57:09.438Z,101265.18
2022-07-28T20:59:38.722Z,101263.15
2022-07-28T21:02:08.141Z,101266.57
2022-07-28T21:04:37.711Z,101266.61
2022-07-28T21:07:09.337Z,101268.72
2022-07-28T21:09:39.661Z,101264.95
2022-07-28T21:12:08.832Z,101266.59
2022-07-28T21:14:40.762Z,101274.60
2022-07-28T21:17:10.189Z,101275.17
2022-07-28T21:19:39.658Z,101274.11
2022-07-28T21:22:11.176Z,101274.98
2022-07-28T21:24:40.472Z,101279.54
2022-07-28T21:27:12.081Z,101282.20
2022-07-28T21:29:42.776Z,101283.40
2022-07-28T21:32:12.155Z,101286.90
2022-07-28T21:34:41.485Z,101284.80
2022-07-28T21:37:12.470Z,101291.21
2022-07-28T21:39:41.721Z,101292.77
2022-07-28T21:42:11.007Z,101297.69
2022-07-28T21:44:40.268Z,101296.72
2022-07-28T21:47:09.499Z,101295.80
2022-07-28T21:49:38.742Z,101301.30
2022-07-28T21:52:07.946Z,101303.93
2022-07-28T21:54:37.116Z,101300.16
2022-07-28T21:57:22.354Z,101302.81
2022-07-28T21:59:55.346Z,101299.27
2022-07-28T22:02:25.153Z,101304.47
2022-07-28T22:04:55.185Z,101299.21
2022-07-28T22:07:24.455Z,101299.92
2022-07-28T22:09:53.776Z,101302.69
2022-07-28T22:12:24.196Z,101300.99
2022-07-28T22:14:54.375Z,101298.58
2022-07-28T22:17:23.873Z,101299.04
2022-07-28T22:19:53.344Z,101307.37
2022-07-28T22:22:22.669Z,101303.94
2022-07-28T22:24:51.849Z,101306.68
2022-07-28T22:27:21.031Z,101305.16
2022-07-28T22:29:52.005Z,101304.42
2022-07-28T22:32:28.599Z,101306.38
2022-07-28T22:35:00.302Z,101308.52
2022-07-28T22:37:30.461Z,101309.72
2022-07-28T22:39:59.690Z,101315.55
2022-07-28T22:42:28.848Z,101317.27
2022-07-28T22:44:58.011Z,101311.10
2022-07-28T22:47:27.254Z,101320.27
2022-07-28T22:49:56.421Z,101320.51
2022-07-28T22:52:25.747Z,101318.08
2022-07-28T22:54:55.044Z,101323.23
2022-07-28T22:57:26.962Z,101324.78
2022-07-28T22:59:56.241Z,101330.20
2022-07-28T23:02:27.758Z,101323.35
2022-07-28T23:04:59.398Z,101327.66
2022-07-28T23:07:50.588Z,101328.50
2022-07-28T23:10:18.274Z,101329.77
2022-07-28T23:12:47.495Z,101330.49
2022-07-28T23:15:16.803Z,101333.27
2022-07-28T23:17:45.992Z,101333.73
2022-07-28T23:20:15.275Z,101333.87
2022-07-28T23:22:44.606Z,101331.98
2022-07-28T23:25:16.215Z,101328.00
2022-07-28T23:27:45.457Z,101330.52
2022-07-28T23:30:14.761Z,101330.15
2022-07-28T23:32:44.032Z,101333.31
2022-07-28T23:35:13.403Z,101331.38
2022-07-28T23:37:42.680Z,101333.95
2022-07-28T23:40:11.902Z,101335.85
2022-07-28T23:42:41.147Z,101341.02
2022-07-28T23:45:10.473Z,101347.48
2022-07-28T23:47:39.812Z,101345.27
2022-07-28T23:50:09.110Z,101346.38
2022-07-28T23:52:38.416Z,101344.82
2022-07-28T23:55:07.797Z,101348.13
2022-07-28T23:57:36.913Z,101352.27
